sensor_id;sensor_type;location;lat;lon;timestamp;P1;durP1;ratioP1;P2;durP2;ratioP2
22191;SDS011;11261;52.456;10.850;2023-04-06T00:00:04;2.70;;;1.70;;
22191;SDS011;11261;52.456;10.850;2023-04-06T00:02:35;3.45;;;2.00;;
22191;SDS011;11261;52.456;10.850;2023-04-06T00:05:04;4.50;;;1.67;;
22191;SDS011;11261;52.456;10.850;2023-04-06T00:07:33;2.97;;;1.58;;
22191;SDS011;11261;52.456;10.850;2023-04-06T00:10:02;6.38;;;2.22;;
22191;SDS011;11261;52.456;10.850;2023-04-06T00:12:32;3.92;;;2.58;;
22191;SDS011;11261;52.456;10.850;2023-04-06T00:15:00;11.17;;;3.43;;
22191;SDS011;11261;52.456;10.850;2023-04-06T00:17:29;10.35;;;3.72;;
22191;SDS011;11261;52.456;10.850;2023-04-06T00:19:58;13.85;;;4.32;;
22191;SDS011;11261;52.456;10.850;2023-04-06T00:22:26;13.27;;;5.00;;
22191;SDS011;11261;52.456;10.850;2023-04-06T00:24:54;10.98;;;4.10;;
22191;SDS011;11261;52.456;10.850;2023-04-06T00:27:23;11.02;;;3.88;;
22191;SDS011;11261;52.456;10.850;2023-04-06T00:29:52;12.93;;;3.95;;
22191;SDS011;11261;52.456;10.850;2023-04-06T00:32:21;14.95;;;4.20;;
22191;SDS011;11261;52.456;10.850;2023-04-06T00:34:49;9.93;;;3.67;;
22191;SDS011;11261;52.456;10.850;2023-04-06T00:37:17;6.25;;;2.92;;
22191;SDS011;11261;52.456;10.850;2023-04-06T00:39:46;9.38;;;3.47;;
22191;SDS011;11261;52.456;10.850;2023-04-06T00:42:14;10.97;;;3.13;;
22191;SDS011;11261;52.456;10.850;2023-04-06T00:44:44;5.07;;;2.53;;
22191;SDS011;11261;52.456;10.850;2023-04-06T00:47:13;5.90;;;2.40;;
22191;SDS011;11261;52.456;10.850;2023-04-06T00:49:42;2.97;;;2.08;;
22191;SDS011;11261;52.456;10.850;2023-04-06T00:52:10;4.97;;;2.30;;
22191;SDS011;11261;52.456;10.850;2023-04-06T00:54:39;5.18;;;2.17;;
22191;SDS011;11261;52.456;10.850;2023-04-06T00:57:07;4.75;;;2.42;;
22191;SDS011;11261;52.456;10.850;2023-04-06T00:59:35;5.30;;;2.67;;
22191;SDS011;11261;52.456;10.850;2023-04-06T01:02:04;4.20;;;1.90;;
22191;SDS011;11261;52.456;10.850;2023-04-06T01:04:34;4.53;;;2.50;;
22191;SDS011;11261;52.456;10.850;2023-04-06T01:07:02;4.57;;;2.13;;
22191;SDS011;11261;52.456;10.850;2023-04-06T01:09:30;2.78;;;2.03;;
22191;SDS011;11261;52.456;10.850;2023-04-06T01:11:58;4.33;;;2.50;;
22191;SDS011;11261;52.456;10.850;2023-04-06T01:14:27;5.83;;;2.20;;
22191;SDS011;11261;52.456;10.850;2023-04-06T01:16:57;4.13;;;2.60;;
22191;SDS011;11261;52.456;10.850;2023-04-06T01:19:27;5.13;;;2.20;;
22191;SDS011;11261;52.456;10.850;2023-04-06T01:21:56;2.73;;;2.03;;
22191;SDS011;11261;52.456;10.850;2023-04-06T01:24:26;4.47;;;2.53;;
22191;SDS011;11261;52.456;10.850;2023-04-06T01:26:54;3.00;;;2.43;;
22191;SDS011;11261;52.456;10.850;2023-04-06T01:29:23;3.40;;;2.20;;
22191;SDS011;11261;52.456;10.850;2023-04-06T01:31:52;3.90;;;2.37;;
22191;SDS011;11261;52.456;10.850;2023-04-06T01:34:20;3.23;;;2.47;;
22191;SDS011;11261;52.456;10.850;2023-04-06T01:36:48;4.60;;;2.47;;
22191;SDS011;11261;52.456;10.850;2023-04-06T01:39:17;6.73;;;2.50;;
22191;SDS011;11261;52.456;10.850;2023-04-06T01:41:48;4.10;;;2.07;;
22191;SDS011;11261;52.456;10.850;2023-04-06T01:44:16;4.73;;;2.57;;
22191;SDS011;11261;52.456;10.850;2023-04-06T01:46:45;3.67;;;2.20;;
22191;SDS011;11261;52.456;10.850;2023-04-06T01:49:13;6.90;;;2.70;;
22191;SDS011;11261;52.456;10.850;2023-04-06T01:51:42;4.30;;;2.50;;
22191;SDS011;11261;52.456;10.850;2023-04-06T01:54:10;3.07;;;2.13;;
22191;SDS011;11261;52.456;10.850;2023-04-06T01:56:38;4.10;;;2.20;;
22191;SDS011;11261;52.456;10.850;2023-04-06T01:59:08;5.17;;;2.23;;
22191;SDS011;11261;52.456;10.850;2023-04-06T02:01:37;2.77;;;1.90;;
22191;SDS011;11261;52.456;10.850;2023-04-06T02:04:05;4.97;;;2.83;;
22191;SDS011;11261;52.456;10.850;2023-04-06T02:06:34;4.23;;;2.40;;
22191;SDS011;11261;52.456;10.850;2023-04-06T02:09:02;6.77;;;2.57;;
22191;SDS011;11261;52.456;10.850;2023-04-06T02:11:31;4.97;;;2.40;;
22191;SDS011;11261;52.456;10.850;2023-04-06T02:13:59;5.23;;;2.57;;
22191;SDS011;11261;52.456;10.850;2023-04-06T02:16:29;4.17;;;2.43;;
22191;SDS011;11261;52.456;10.850;2023-04-06T02:18:57;3.93;;;2.57;;
22191;SDS011;11261;52.456;10.850;2023-04-06T02:21:25;4.60;;;2.93;;
22191;SDS011;11261;52.456;10.850;2023-04-06T02:23:54;6.53;;;2.80;;
22191;SDS011;11261;52.456;10.850;2023-04-06T02:26:22;6.43;;;2.17;;
22191;SDS011;11261;52.456;10.850;2023-04-06T02:28:50;3.63;;;2.17;;
22191;SDS011;11261;52.456;10.850;2023-04-06T02:31:18;3.57;;;2.00;;
22191;SDS011;11261;52.456;10.850;2023-04-06T02:33:48;3.93;;;2.53;;
22191;SDS011;11261;52.456;10.850;2023-04-06T02:36:16;5.27;;;2.40;;
22191;SDS011;11261;52.456;10.850;2023-04-06T02:38:45;5.00;;;2.40;;
22191;SDS011;11261;52.456;10.850;2023-04-06T02:41:13;4.17;;;2.33;;
22191;SDS011;11261;52.456;10.850;2023-04-06T02:43:41;4.87;;;2.30;;
22191;SDS011;11261;52.456;10.850;2023-04-06T02:46:10;7.73;;;2.47;;
22191;SDS011;11261;52.456;10.850;2023-04-06T02:48:38;4.97;;;2.80;;
22191;SDS011;11261;52.456;10.850;2023-04-06T02:51:08;3.70;;;2.20;;
22191;SDS011;11261;52.456;10.850;2023-04-06T02:53:36;4.67;;;2.70;;
22191;SDS011;11261;52.456;10.850;2023-04-06T02:56:05;5.50;;;2.83;;
22191;SDS011;11261;52.456;10.850;2023-04-06T02:58:33;4.17;;;2.53;;
22191;SDS011;11261;52.456;10.850;2023-04-06T03:01:02;5.07;;;2.57;;
22191;SDS011;11261;52.456;10.850;2023-04-06T03:03:31;5.53;;;2.90;;
22191;SDS011;11261;52.456;10.850;2023-04-06T03:05:59;3.47;;;2.30;;
22191;SDS011;11261;52.456;10.850;2023-04-06T03:08:29;3.53;;;2.57;;
22191;SDS011;11261;52.456;10.850;2023-04-06T03:10:57;4.00;;;2.67;;
22191;SDS011;11261;52.456;10.850;2023-04-06T03:13:26;3.27;;;2.33;;
22191;SDS011;11261;52.456;10.850;2023-04-06T03:15:54;4.33;;;2.60;;
22191;SDS011;11261;52.456;10.850;2023-04-06T03:18:23;5.70;;;2.83;;
22191;SDS011;11261;52.456;10.850;2023-04-06T03:20:52;3.90;;;2.73;;
22191;SDS011;11261;52.456;10.850;2023-04-06T03:23:21;3.77;;;2.37;;
22191;SDS011;11261;52.456;10.850;2023-04-06T03:25:51;3.23;;;2.40;;
22191;SDS011;11261;52.456;10.850;2023-04-06T03:28:19;3.87;;;2.47;;
22191;SDS011;11261;52.456;10.850;2023-04-06T03:30:48;3.17;;;2.30;;
22191;SDS011;11261;52.456;10.850;2023-04-06T03:33:16;6.17;;;2.67;;
22191;SDS011;11261;52.456;10.850;2023-04-06T03:35:45;4.93;;;2.80;;
22191;SDS011;11261;52.456;10.850;2023-04-06T03:38:13;4.17;;;2.70;;
22191;SDS011;11261;52.456;10.850;2023-04-06T03:40:41;3.67;;;2.70;;
22191;SDS011;11261;52.456;10.850;2023-04-06T03:43:11;4.77;;;2.60;;
22191;SDS011;11261;52.456;10.850;2023-04-06T03:45:39;4.40;;;2.70;;
22191;SDS011;11261;52.456;10.850;2023-04-06T03:48:08;6.10;;;2.73;;
22191;SDS011;11261;52.456;10.850;2023-04-06T03:50:36;4.77;;;2.50;;
22191;SDS011;11261;52.456;10.850;2023-04-06T03:53:05;4.83;;;2.83;;
22191;SDS011;11261;52.456;10.850;2023-04-06T03:55:33;7.93;;;2.77;;
22191;SDS011;11261;52.456;10.850;2023-04-06T03:58:01;5.80;;;2.50;;
22191;SDS011;11261;52.456;10.850;2023-04-06T04:00:31;4.33;;;2.83;;
22191;SDS011;11261;52.456;10.850;2023-04-06T04:02:59;7.03;;;2.77;;
22191;SDS011;11261;52.456;10.850;2023-04-06T04:05:28;4.37;;;2.60;;
22191;SDS011;11261;52.456;10.850;2023-04-06T04:07:56;7.83;;;3.30;;
22191;SDS011;11261;52.456;10.850;2023-04-06T04:10:25;8.63;;;2.47;;
22191;SDS011;11261;52.456;10.850;2023-04-06T04:12:53;6.57;;;2.60;;
22191;SDS011;11261;52.456;10.850;2023-04-06T04:15:21;5.03;;;2.27;;
22191;SDS011;11261;52.456;10.850;2023-04-06T04:17:50;4.63;;;2.50;;
22191;SDS011;11261;52.456;10.850;2023-04-06T04:20:19;7.40;;;3.07;;
22191;SDS011;11261;52.456;10.850;2023-04-06T04:22:47;9.47;;;3.50;;
22191;SDS011;11261;52.456;10.850;2023-04-06T04:25:16;6.37;;;3.47;;
22191;SDS011;11261;52.456;10.850;2023-04-06T04:27:44;5.10;;;3.23;;
22191;SDS011;11261;52.456;10.850;2023-04-06T04:30:12;5.53;;;3.20;;
22191;SDS011;11261;52.456;10.850;2023-04-06T04:32:41;8.57;;;3.07;;
22191;SDS011;11261;52.456;10.850;2023-04-06T04:35:11;11.33;;;3.30;;
22191;SDS011;11261;52.456;10.850;2023-04-06T04:37:40;15.40;;;4.20;;
22191;SDS011;11261;52.456;10.850;2023-04-06T04:40:09;10.53;;;4.07;;
22191;SDS011;11261;52.456;10.850;2023-04-06T04:42:37;9.47;;;3.93;;
22191;SDS011;11261;52.456;10.850;2023-04-06T04:45:06;5.77;;;3.00;;
22191;SDS011;11261;52.456;10.850;2023-04-06T04:47:35;6.27;;;3.57;;
22191;SDS011;11261;52.456;10.850;2023-04-06T04:50:03;8.00;;;3.57;;
22191;SDS011;11261;52.456;10.850;2023-04-06T04:52:33;6.97;;;2.83;;
22191;SDS011;11261;52.456;10.850;2023-04-06T04:55:02;7.33;;;3.27;;
22191;SDS011;11261;52.456;10.850;2023-04-06T04:57:30;6.90;;;3.33;;
22191;SDS011;11261;52.456;10.850;2023-04-06T04:59:59;6.67;;;3.47;;
22191;SDS011;11261;52.456;10.850;2023-04-06T05:02:28;6.73;;;3.87;;
22191;SDS011;11261;52.456;10.850;2023-04-06T05:04:56;9.93;;;5.80;;
22191;SDS011;11261;52.456;10.850;2023-04-06T05:07:24;7.33;;;4.27;;
22191;SDS011;11261;52.456;10.850;2023-04-06T05:09:54;10.70;;;4.03;;
22191;SDS011;11261;52.456;10.850;2023-04-06T05:12:23;4.73;;;3.40;;
22191;SDS011;11261;52.456;10.850;2023-04-06T05:14:53;11.17;;;4.13;;
22191;SDS011;11261;52.456;10.850;2023-04-06T05:17:21;5.67;;;3.43;;
22191;SDS011;11261;52.456;10.850;2023-04-06T05:19:50;4.90;;;3.03;;
22191;SDS011;11261;52.456;10.850;2023-04-06T05:22:18;10.77;;;3.40;;
22191;SDS011;11261;52.456;10.850;2023-04-06T05:24:47;8.90;;;3.33;;
22191;SDS011;11261;52.456;10.850;2023-04-06T05:27:16;9.77;;;3.73;;
22191;SDS011;11261;52.456;10.850;2023-04-06T05:29:45;6.17;;;3.03;;
22191;SDS011;11261;52.456;10.850;2023-04-06T05:32:13;6.87;;;3.70;;
22191;SDS011;11261;52.456;10.850;2023-04-06T05:34:42;7.40;;;3.23;;
22191;SDS011;11261;52.456;10.850;2023-04-06T05:37:10;9.33;;;3.40;;
22191;SDS011;11261;52.456;10.850;2023-04-06T05:39:38;5.87;;;3.57;;
22191;SDS011;11261;52.456;10.850;2023-04-06T05:42:06;6.80;;;3.43;;
22191;SDS011;11261;52.456;10.850;2023-04-06T05:44:37;8.07;;;3.30;;
22191;SDS011;11261;52.456;10.850;2023-04-06T05:47:06;8.37;;;2.87;;
22191;SDS011;11261;52.456;10.850;2023-04-06T05:49:34;8.87;;;3.30;;
22191;SDS011;11261;52.456;10.850;2023-04-06T05:52:03;6.67;;;3.33;;
22191;SDS011;11261;52.456;10.850;2023-04-06T05:54:32;6.03;;;3.20;;
22191;SDS011;11261;52.456;10.850;2023-04-06T05:57:01;5.13;;;3.00;;
22191;SDS011;11261;52.456;10.850;2023-04-06T05:59:29;8.37;;;3.20;;
22191;SDS011;11261;52.456;10.850;2023-04-06T06:01:59;6.97;;;3.33;;
22191;SDS011;11261;52.456;10.850;2023-04-06T06:04:28;8.38;;;3.47;;
22191;SDS011;11261;52.456;10.850;2023-04-06T06:06:57;8.17;;;3.07;;
22191;SDS011;11261;52.456;10.850;2023-04-06T06:09:26;5.45;;;3.22;;
22191;SDS011;11261;52.456;10.850;2023-04-06T06:11:55;4.63;;;3.10;;
22191;SDS011;11261;52.456;10.850;2023-04-06T06:14:23;6.30;;;3.53;;
22191;SDS011;11261;52.456;10.850;2023-04-06T06:16:52;5.35;;;3.53;;
22191;SDS011;11261;52.456;10.850;2023-04-06T06:19:21;3.83;;;2.95;;
22191;SDS011;11261;52.456;10.850;2023-04-06T06:21:49;4.60;;;3.25;;
22191;SDS011;11261;52.456;10.850;2023-04-06T06:24:18;5.55;;;3.10;;
22191;SDS011;11261;52.456;10.850;2023-04-06T06:26:46;6.13;;;4.13;;
22191;SDS011;11261;52.456;10.850;2023-04-06T06:29:15;7.30;;;3.80;;
22191;SDS011;11261;52.456;10.850;2023-04-06T06:31:43;5.50;;;3.67;;
22191;SDS011;11261;52.456;10.850;2023-04-06T06:34:11;5.65;;;4.07;;
22191;SDS011;11261;52.456;10.850;2023-04-06T06:36:41;6.15;;;3.35;;
22191;SDS011;11261;52.456;10.850;2023-04-06T06:39:12;5.25;;;3.45;;
22191;SDS011;11261;52.456;10.850;2023-04-06T06:41:41;8.20;;;3.63;;
22191;SDS011;11261;52.456;10.850;2023-04-06T06:44:09;7.18;;;3.90;;
22191;SDS011;11261;52.456;10.850;2023-04-06T06:46:37;4.70;;;4.00;;
22191;SDS011;11261;52.456;10.850;2023-04-06T06:49:05;6.78;;;3.78;;
22191;SDS011;11261;52.456;10.850;2023-04-06T06:51:34;5.95;;;4.35;;
22191;SDS011;11261;52.456;10.850;2023-04-06T06:54:04;6.82;;;3.75;;
22191;SDS011;11261;52.456;10.850;2023-04-06T06:56:32;5.40;;;3.95;;
22191;SDS011;11261;52.456;10.850;2023-04-06T06:59:02;5.32;;;4.15;;
22191;SDS011;11261;52.456;10.850;2023-04-06T07:01:30;9.15;;;4.20;;
22191;SDS011;11261;52.456;10.850;2023-04-06T07:04:00;4.78;;;3.92;;
22191;SDS011;11261;52.456;10.850;2023-04-06T07:06:28;6.78;;;4.38;;
22191;SDS011;11261;52.456;10.850;2023-04-06T07:08:56;9.32;;;4.88;;
22191;SDS011;11261;52.456;10.850;2023-04-06T07:11:26;9.07;;;4.60;;
22191;SDS011;11261;52.456;10.850;2023-04-06T07:13:54;8.13;;;4.22;;
22191;SDS011;11261;52.456;10.850;2023-04-06T07:16:22;6.68;;;4.47;;
22191;SDS011;11261;52.456;10.850;2023-04-06T07:18:51;6.70;;;4.32;;
22191;SDS011;11261;52.456;10.850;2023-04-06T07:21:19;4.72;;;4.03;;
22191;SDS011;11261;52.456;10.850;2023-04-06T07:23:48;6.28;;;4.10;;
22191;SDS011;11261;52.456;10.850;2023-04-06T07:26:17;9.20;;;5.22;;
22191;SDS011;11261;52.456;10.850;2023-04-06T07:28:46;6.45;;;4.78;;
22191;SDS011;11261;52.456;10.850;2023-04-06T07:31:14;10.23;;;5.70;;
22191;SDS011;11261;52.456;10.850;2023-04-06T07:33:43;8.45;;;4.97;;
22191;SDS011;11261;52.456;10.850;2023-04-06T07:36:11;8.88;;;4.80;;
22191;SDS011;11261;52.456;10.850;2023-04-06T07:38:39;5.55;;;4.45;;
22191;SDS011;11261;52.456;10.850;2023-04-06T07:41:07;7.88;;;4.15;;
22191;SDS011;11261;52.456;10.850;2023-04-06T07:43:36;8.32;;;4.60;;
22191;SDS011;11261;52.456;10.850;2023-04-06T07:46:06;6.63;;;4.80;;
22191;SDS011;11261;52.456;10.850;2023-04-06T07:48:34;8.45;;;4.55;;
22191;SDS011;11261;52.456;10.850;2023-04-06T07:51:04;5.65;;;3.85;;
22191;SDS011;11261;52.456;10.850;2023-04-06T07:53:33;7.00;;;4.03;;
22191;SDS011;11261;52.456;10.850;2023-04-06T07:56:01;8.52;;;4.75;;
22191;SDS011;11261;52.456;10.850;2023-04-06T07:58:29;6.68;;;3.90;;
22191;SDS011;11261;52.456;10.850;2023-04-06T08:00:57;6.78;;;4.72;;
22191;SDS011;11261;52.456;10.850;2023-04-06T08:03:27;8.15;;;4.70;;
22191;SDS011;11261;52.456;10.850;2023-04-06T08:05:56;6.82;;;4.50;;
22191;SDS011;11261;52.456;10.850;2023-04-06T08:08:24;6.60;;;4.43;;
22191;SDS011;11261;52.456;10.850;2023-04-06T08:10:52;5.43;;;3.88;;
22191;SDS011;11261;52.456;10.850;2023-04-06T08:13:20;6.40;;;4.10;;
22191;SDS011;11261;52.456;10.850;2023-04-06T08:15:49;6.25;;;5.10;;
22191;SDS011;11261;52.456;10.850;2023-04-06T08:18:17;6.47;;;4.50;;
22191;SDS011;11261;52.456;10.850;2023-04-06T08:20:47;6.55;;;4.00;;
22191;SDS011;11261;52.456;10.850;2023-04-06T08:23:16;7.03;;;4.82;;
22191;SDS011;11261;52.456;10.850;2023-04-06T08:25:44;5.68;;;4.13;;
22191;SDS011;11261;52.456;10.850;2023-04-06T08:28:12;7.25;;;4.45;;
22191;SDS011;11261;52.456;10.850;2023-04-06T08:30:41;7.07;;;4.47;;
22191;SDS011;11261;52.456;10.850;2023-04-06T08:33:10;7.78;;;4.25;;
22191;SDS011;11261;52.456;10.850;2023-04-06T08:35:38;6.88;;;4.13;;
22191;SDS011;11261;52.456;10.850;2023-04-06T08:38:08;5.30;;;3.80;;
22191;SDS011;11261;52.456;10.850;2023-04-06T08:40:36;5.60;;;4.10;;
22191;SDS011;11261;52.456;10.850;2023-04-06T08:43:06;6.85;;;3.88;;
22191;SDS011;11261;52.456;10.850;2023-04-06T08:45:38;6.78;;;4.25;;
22191;SDS011;11261;52.456;10.850;2023-04-06T08:48:06;6.15;;;4.22;;
22191;SDS011;11261;52.456;10.850;2023-04-06T08:50:36;6.03;;;3.67;;
22191;SDS011;11261;52.456;10.850;2023-04-06T08:53:07;4.70;;;3.30;;
22191;SDS011;11261;52.456;10.850;2023-04-06T08:55:35;5.60;;;3.90;;
22191;SDS011;11261;52.456;10.850;2023-04-06T08:58:06;10.30;;;3.83;;
22191;SDS011;11261;52.456;10.850;2023-04-06T09:00:36;5.60;;;4.18;;
22191;SDS011;11261;52.456;10.850;2023-04-06T09:03:06;5.82;;;4.60;;
22191;SDS011;11261;52.456;10.850;2023-04-06T09:05:36;6.10;;;4.50;;
22191;SDS011;11261;52.456;10.850;2023-04-06T09:08:05;4.78;;;4.00;;
22191;SDS011;11261;52.456;10.850;2023-04-06T09:10:35;7.93;;;4.57;;
22191;SDS011;11261;52.456;10.850;2023-04-06T09:13:08;7.55;;;4.53;;
22191;SDS011;11261;52.456;10.850;2023-04-06T09:15:36;6.75;;;4.28;;
22191;SDS011;11261;52.456;10.850;2023-04-06T09:18:05;7.10;;;5.00;;
22191;SDS011;11261;52.456;10.850;2023-04-06T09:20:34;7.90;;;4.50;;
22191;SDS011;11261;52.456;10.850;2023-04-06T09:23:02;7.68;;;3.88;;
22191;SDS011;11261;52.456;10.850;2023-04-06T09:25:32;7.97;;;4.60;;
22191;SDS011;11261;52.456;10.850;2023-04-06T09:28:01;5.10;;;3.90;;
22191;SDS011;11261;52.456;10.850;2023-04-06T09:30:33;5.53;;;3.58;;
22191;SDS011;11261;52.456;10.850;2023-04-06T09:33:02;7.60;;;4.53;;
22191;SDS011;11261;52.456;10.850;2023-04-06T09:35:30;8.25;;;4.50;;
22191;SDS011;11261;52.456;10.850;2023-04-06T09:37:59;6.72;;;4.75;;
22191;SDS011;11261;52.456;10.850;2023-04-06T09:40:48;7.15;;;4.55;;
22191;SDS011;11261;52.456;10.850;2023-04-06T09:43:26;5.25;;;4.13;;
22191;SDS011;11261;52.456;10.850;2023-04-06T09:45:55;5.32;;;4.22;;
22191;SDS011;11261;52.456;10.850;2023-04-06T09:48:25;6.57;;;5.00;;
22191;SDS011;11261;52.456;10.850;2023-04-06T09:50:56;7.90;;;4.97;;
22191;SDS011;11261;52.456;10.850;2023-04-06T09:53:27;6.60;;;4.35;;
22191;SDS011;11261;52.456;10.850;2023-04-06T09:56:02;6.40;;;4.10;;
22191;SDS011;11261;52.456;10.850;2023-04-06T09:58:32;6.40;;;4.07;;
22191;SDS011;11261;52.456;10.850;2023-04-06T10:01:05;5.80;;;4.78;;
22191;SDS011;11261;52.456;10.850;2023-04-06T10:03:40;7.68;;;4.68;;
22191;SDS011;11261;52.456;10.850;2023-04-06T10:06:13;6.43;;;4.22;;
22191;SDS011;11261;52.456;10.850;2023-04-06T10:08:45;7.65;;;4.63;;
22191;SDS011;11261;52.456;10.850;2023-04-06T10:11:16;4.93;;;3.30;;
22191;SDS011;11261;52.456;10.850;2023-04-06T10:13:46;9.15;;;5.40;;
22191;SDS011;11261;52.456;10.850;2023-04-06T10:16:16;9.15;;;5.10;;
22191;SDS011;11261;52.456;10.850;2023-04-06T10:18:46;5.18;;;4.30;;
22191;SDS011;11261;52.456;10.850;2023-04-06T10:21:20;6.00;;;4.13;;
22191;SDS011;11261;52.456;10.850;2023-04-06T10:23:54;6.43;;;4.20;;
22191;SDS011;11261;52.456;10.850;2023-04-06T10:26:27;7.53;;;4.35;;
22191;SDS011;11261;52.456;10.850;2023-04-06T10:29:01;6.95;;;4.32;;
22191;SDS011;11261;52.456;10.850;2023-04-06T10:31:31;5.35;;;3.97;;
22191;SDS011;11261;52.456;10.850;2023-04-06T10:34:01;7.47;;;4.70;;
22191;SDS011;11261;52.456;10.850;2023-04-06T10:36:31;7.00;;;4.13;;
22191;SDS011;11261;52.456;10.850;2023-04-06T10:39:01;6.03;;;4.32;;
22191;SDS011;11261;52.456;10.850;2023-04-06T10:41:35;5.78;;;4.15;;
22191;SDS011;11261;52.456;10.850;2023-04-06T10:44:16;6.07;;;4.63;;
22191;SDS011;11261;52.456;10.850;2023-04-06T10:46:56;6.13;;;4.72;;
22191;SDS011;11261;52.456;10.850;2023-04-06T10:49:26;7.03;;;4.05;;
22191;SDS011;11261;52.456;10.850;2023-04-06T10:51:55;4.95;;;3.22;;
22191;SDS011;11261;52.456;10.850;2023-04-06T10:54:24;6.65;;;3.95;;
22191;SDS011;11261;52.456;10.850;2023-04-06T10:56:55;7.55;;;3.85;;
22191;SDS011;11261;52.456;10.850;2023-04-06T10:59:23;4.75;;;3.45;;
22191;SDS011;11261;52.456;10.850;2023-04-06T11:01:53;7.00;;;4.28;;
22191;SDS011;11261;52.456;10.850;2023-04-06T11:04:22;4.28;;;2.80;;
22191;SDS011;11261;52.456;10.850;2023-04-06T11:06:50;4.63;;;3.50;;
22191;SDS011;11261;52.456;10.850;2023-04-06T11:09:25;5.13;;;3.30;;
22191;SDS011;11261;52.456;10.850;2023-04-06T11:11:56;5.53;;;3.28;;
22191;SDS011;11261;52.456;10.850;2023-04-06T11:14:24;9.02;;;3.70;;
22191;SDS011;11261;52.456;10.850;2023-04-06T11:16:53;9.00;;;3.55;;
22191;SDS011;11261;52.456;10.850;2023-04-06T11:19:21;4.07;;;2.95;;
22191;SDS011;11261;52.456;10.850;2023-04-06T11:21:50;8.27;;;3.67;;
22191;SDS011;11261;52.456;10.850;2023-04-06T11:24:19;5.57;;;3.65;;
22191;SDS011;11261;52.456;10.850;2023-04-06T11:26:49;5.28;;;2.78;;
22191;SDS011;11261;52.456;10.850;2023-04-06T11:29:20;5.95;;;3.70;;
22191;SDS011;11261;52.456;10.850;2023-04-06T11:31:49;5.63;;;3.58;;
22191;SDS011;11261;52.456;10.850;2023-04-06T11:34:21;5.35;;;3.95;;
22191;SDS011;11261;52.456;10.850;2023-04-06T11:36:53;7.93;;;4.40;;
22191;SDS011;11261;52.456;10.850;2023-04-06T11:39:23;6.97;;;4.10;;
22191;SDS011;11261;52.456;10.850;2023-04-06T11:41:53;6.18;;;4.00;;
22191;SDS011;11261;52.456;10.850;2023-04-06T11:44:31;5.88;;;3.88;;
22191;SDS011;11261;52.456;10.850;2023-04-06T11:47:00;5.13;;;3.55;;
22191;SDS011;11261;52.456;10.850;2023-04-06T11:49:30;6.63;;;4.55;;
22191;SDS011;11261;52.456;10.850;2023-04-06T11:51:59;5.95;;;3.85;;
22191;SDS011;11261;52.456;10.850;2023-04-06T11:54:32;6.38;;;4.38;;
22191;SDS011;11261;52.456;10.850;2023-04-06T11:57:01;8.02;;;4.47;;
22191;SDS011;11261;52.456;10.850;2023-04-06T11:59:31;11.18;;;5.20;;
22191;SDS011;11261;52.456;10.850;2023-04-06T12:02:00;7.47;;;4.60;;
22191;SDS011;11261;52.456;10.850;2023-04-06T12:04:29;6.47;;;4.88;;
22191;SDS011;11261;52.456;10.850;2023-04-06T12:06:58;7.20;;;4.82;;
22191;SDS011;11261;52.456;10.850;2023-04-06T12:09:26;6.50;;;4.60;;
22191;SDS011;11261;52.456;10.850;2023-04-06T12:11:56;5.88;;;3.90;;
22191;SDS011;11261;52.456;10.850;2023-04-06T12:14:25;6.15;;;4.20;;
22191;SDS011;11261;52.456;10.850;2023-04-06T12:16:54;8.75;;;4.50;;
22191;SDS011;11261;52.456;10.850;2023-04-06T12:19:23;5.93;;;4.10;;
22191;SDS011;11261;52.456;10.850;2023-04-06T12:21:52;6.22;;;4.30;;
22191;SDS011;11261;52.456;10.850;2023-04-06T12:24:21;5.47;;;4.20;;
22191;SDS011;11261;52.456;10.850;2023-04-06T12:26:49;5.53;;;3.53;;
22191;SDS011;11261;52.456;10.850;2023-04-06T12:29:28;6.63;;;4.03;;
22191;SDS011;11261;52.456;10.850;2023-04-06T12:31:57;8.20;;;4.68;;
22191;SDS011;11261;52.456;10.850;2023-04-06T12:34:27;7.53;;;4.88;;
22191;SDS011;11261;52.456;10.850;2023-04-06T12:36:56;6.25;;;4.53;;
22191;SDS011;11261;52.456;10.850;2023-04-06T12:39:25;4.97;;;3.75;;
22191;SDS011;11261;52.456;10.850;2023-04-06T12:41:54;8.65;;;5.40;;
22191;SDS011;11261;52.456;10.850;2023-04-06T12:44:23;6.07;;;4.25;;
22191;SDS011;11261;52.456;10.850;2023-04-06T12:46:52;7.10;;;4.50;;
22191;SDS011;11261;52.456;10.850;2023-04-06T12:49:23;5.82;;;4.30;;
22191;SDS011;11261;52.456;10.850;2023-04-06T12:51:51;6.57;;;4.30;;
22191;SDS011;11261;52.456;10.850;2023-04-06T12:54:20;7.88;;;4.13;;
22191;SDS011;11261;52.456;10.850;2023-04-06T12:56:48;5.70;;;4.22;;
22191;SDS011;11261;52.456;10.850;2023-04-06T12:59:16;7.93;;;3.60;;
22191;SDS011;11261;52.456;10.850;2023-04-06T13:01:45;7.55;;;4.80;;
22191;SDS011;11261;52.456;10.850;2023-04-06T13:04:13;7.53;;;5.03;;
22191;SDS011;11261;52.456;10.850;2023-04-06T13:06:43;6.07;;;4.20;;
22191;SDS011;11261;52.456;10.850;2023-04-06T13:09:11;6.90;;;4.18;;
22191;SDS011;11261;52.456;10.850;2023-04-06T13:11:39;6.10;;;4.32;;
22191;SDS011;11261;52.456;10.850;2023-04-06T13:14:08;7.68;;;4.63;;
22191;SDS011;11261;52.456;10.850;2023-04-06T13:16:36;5.32;;;3.78;;
22191;SDS011;11261;52.456;10.850;2023-04-06T13:19:05;7.88;;;4.70;;
22191;SDS011;11261;52.456;10.850;2023-04-06T13:21:33;8.48;;;5.30;;
22191;SDS011;11261;52.456;10.850;2023-04-06T13:24:03;6.75;;;4.45;;
22191;SDS011;11261;52.456;10.850;2023-04-06T13:26:32;7.18;;;4.43;;
22191;SDS011;11261;52.456;10.850;2023-04-06T13:29:01;8.05;;;5.55;;
22191;SDS011;11261;52.456;10.850;2023-04-06T13:31:30;7.18;;;4.65;;
22191;SDS011;11261;52.456;10.850;2023-04-06T13:33:58;8.43;;;5.30;;
22191;SDS011;11261;52.456;10.850;2023-04-06T13:36:26;5.40;;;4.65;;
22191;SDS011;11261;52.456;10.850;2023-04-06T13:38:55;6.65;;;4.43;;
22191;SDS011;11261;52.456;10.850;2023-04-06T13:41:25;7.18;;;5.07;;
22191;SDS011;11261;52.456;10.850;2023-04-06T13:43:53;6.47;;;4.95;;
22191;SDS011;11261;52.456;10.850;2023-04-06T13:46:21;8.48;;;5.07;;
22191;SDS011;11261;52.456;10.850;2023-04-06T13:48:50;6.65;;;5.68;;
22191;SDS011;11261;52.456;10.850;2023-04-06T13:51:18;5.97;;;4.22;;
22191;SDS011;11261;52.456;10.850;2023-04-06T13:53:47;7.82;;;5.03;;
22191;SDS011;11261;52.456;10.850;2023-04-06T13:56:18;7.35;;;5.40;;
22191;SDS011;11261;52.456;10.850;2023-04-06T13:58:49;6.78;;;4.82;;
22191;SDS011;11261;52.456;10.850;2023-04-06T14:01:17;6.63;;;4.13;;
22191;SDS011;11261;52.456;10.850;2023-04-06T14:03:46;8.10;;;5.15;;
22191;SDS011;11261;52.456;10.850;2023-04-06T14:06:16;7.47;;;5.10;;
22191;SDS011;11261;52.456;10.850;2023-04-06T14:08:47;8.15;;;5.25;;
22191;SDS011;11261;52.456;10.850;2023-04-06T14:11:15;8.75;;;5.00;;
22191;SDS011;11261;52.456;10.850;2023-04-06T14:13:43;8.63;;;5.45;;
22191;SDS011;11261;52.456;10.850;2023-04-06T14:16:14;6.82;;;4.45;;
22191;SDS011;11261;52.456;10.850;2023-04-06T14:18:46;5.38;;;4.00;;
22191;SDS011;11261;52.456;10.850;2023-04-06T14:21:14;4.75;;;3.80;;
22191;SDS011;11261;52.456;10.850;2023-04-06T14:23:42;8.27;;;3.92;;
22191;SDS011;11261;52.456;10.850;2023-04-06T14:26:11;7.38;;;4.97;;
22191;SDS011;11261;52.456;10.850;2023-04-06T14:28:39;6.70;;;5.93;;
22191;SDS011;11261;52.456;10.850;2023-04-06T14:31:11;6.00;;;4.70;;
22191;SDS011;11261;52.456;10.850;2023-04-06T14:33:42;6.35;;;4.85;;
22191;SDS011;11261;52.456;10.850;2023-04-06T14:36:11;6.57;;;4.20;;
22191;SDS011;11261;52.456;10.850;2023-04-06T14:38:39;8.43;;;5.30;;
22191;SDS011;11261;52.456;10.850;2023-04-06T14:41:14;6.30;;;4.38;;
22191;SDS011;11261;52.456;10.850;2023-04-06T14:43:43;6.32;;;4.22;;